Arock, Oregon
Current Conditions -  °F | °C
As of 3:15 AM on Sunday 23 Nov 2014 (Local Time) from KMAN Reporting Station
Broken Clouds Broken Clouds  
Wind Chill:   Ceiling: 6000
Heat Index:   Visibility: 10mi
Dew Point: -2°   Wind: 7mph
Humidity: 70%   Direction: 320°NW
Pressure: 30.21"   Gusts: NA
Location:  42.91°N, 117.53°W
Report Text: KMAN 231015Z AUTO 32006KT 10SM BKN060 03/M02 A3021 RMK AO1
Loading
Personal Weather Stations






























Interactive Weather Map New forecast layout! Learn more

10-Day Weather Forecast

Advertisements
Track Severe Weather on mobile